Time;durP1;ratioP1;P1;durP2;ratioP2;P2;SDS_P1;SDS_P2;PMS_P1;PMS_P2;Temp;Humidity;BMP_temperature;BMP_pressure;BME280_temperature;BME280_humidity;BME280_pressure;Samples;Min_cycle;Max_cycle;Signal;HPM_P1;HPM_P2
2022/04/28 00:01:06;;;;;;;14.02;3.53;;;8.10;99.90;;;;;;5069156;28;20059;-71
2022/04/28 00:03:31;;;;;;;12.30;3.22;;;8.20;99.90;;;;;;5070355;28;20032;-71
2022/04/28 00:05:57;;;;;;;8.85;2.90;;;8.10;99.90;;;;;;5070385;28;20471;-71
2022/04/28 00:08:23;;;;;;;10.85;2.95;;;8.10;99.90;;;;;;5069858;28;20043;-71
2022/04/28 00:10:49;;;;;;;10.32;3.20;;;8.10;99.90;;;;;;5070448;28;20048;-71
2022/04/28 00:13:16;;;;;;;11.57;3.03;;;8.10;99.90;;;;;;5070169;28;20184;-69
2022/04/28 00:15:41;;;;;;;15.52;3.80;;;8.20;99.90;;;;;;5070486;28;20384;-69
2022/04/28 00:18:07;;;;;;;14.35;3.30;;;8.10;99.90;;;;;;5070105;28;20040;-70
2022/04/28 00:20:33;;;;;;;12.10;2.55;;;8.40;99.90;;;;;;5070092;28;20040;-69
2022/04/28 00:22:58;;;;;;;9.40;2.90;;;8.10;99.90;;;;;;5070316;28;20124;-72
2022/04/28 00:25:24;;;;;;;10.52;2.70;;;8.10;99.90;;;;;;5068313;28;20135;-70
2022/04/28 00:27:50;;;;;;;11.38;2.85;;;8.10;99.90;;;;;;5071254;28;20037;-71
2022/04/28 00:30:16;;;;;;;11.50;2.97;;;8.10;99.90;;;;;;5073785;28;20510;-75
2022/04/28 00:32:42;;;;;;;9.52;3.55;;;8.10;99.90;;;;;;5073707;28;20083;-72
2022/04/28 00:35:08;;;;;;;13.25;2.78;;;8.10;99.90;;;;;;5073416;28;20377;-73
2022/04/28 00:37:34;;;;;;;11.27;3.13;;;8.00;99.90;;;;;;5072041;28;20048;-72
2022/04/28 00:40:01;;;;;;;7.97;2.80;;;8.00;99.90;;;;;;5072975;28;20060;-72
2022/04/28 00:42:27;;;;;;;9.07;2.50;;;8.10;99.90;;;;;;5073712;28;20475;-74
2022/04/28 00:44:53;;;;;;;15.52;3.33;;;8.00;99.90;;;;;;5071645;28;20075;-70
2022/04/28 00:47:19;;;;;;;14.63;2.85;;;8.00;99.90;;;;;;5073502;28;20085;-72
2022/04/28 00:52:30;;;;;;;9.07;2.60;;;8.40;99.90;;;;;;5072837;28;20058;-71
2022/04/28 00:54:57;;;;;;;16.67;3.22;;;8.20;99.90;;;;;;5073054;28;20044;-71
2022/04/28 00:57:24;;;;;;;9.75;3.10;;;7.90;99.90;;;;;;5072059;28;20438;-71
2022/04/28 00:59:50;;;;;;;10.60;3.08;;;7.90;99.90;;;;;;5072709;28;20109;-71
2022/04/28 01:02:18;;;;;;;9.45;3.53;;;7.90;99.90;;;;;;5073195;28;20142;-71
2022/04/28 01:04:44;;;;;;;8.82;2.88;;;7.90;99.90;;;;;;5072946;28;20052;-72
2022/04/28 01:07:10;;;;;;;9.90;3.25;;;7.90;99.90;;;;;;5072993;28;20052;-71
2022/04/28 01:09:38;;;;;;;11.60;3.15;;;7.90;99.90;;;;;;5071328;28;20097;-73
2022/04/28 01:12:15;;;;;;;14.80;3.53;;;7.90;99.90;;;;;;5072347;28;20045;-71
2022/04/28 01:14:44;;;;;;;10.85;2.90;;;7.90;99.90;;;;;;5073018;28;20135;-73
2022/04/28 01:17:10;;;;;;;12.43;4.28;;;7.90;99.90;;;;;;5072912;28;20048;-72
2022/04/28 01:19:36;;;;;;;12.40;2.90;;;7.90;99.90;;;;;;5072768;28;20132;-70
2022/04/28 01:22:04;;;;;;;11.52;3.20;;;7.80;99.90;;;;;;5072227;28;20111;-73
2022/04/28 01:24:30;;;;;;;15.27;3.00;;;7.80;99.90;;;;;;5072508;28;20052;-71
2022/04/28 01:26:58;;;;;;;10.55;3.03;;;7.90;99.90;;;;;;5072277;28;20119;-71
2022/04/28 01:29:23;;;;;;;9.50;2.70;;;7.80;99.90;;;;;;5054685;28;20052;-71
2022/04/28 01:31:49;;;;;;;11.50;3.00;;;7.80;99.90;;;;;;5072148;28;20044;-69
2022/04/28 01:34:15;;;;;;;8.82;2.55;;;7.80;99.90;;;;;;5071206;28;20186;-73
2022/04/28 01:36:41;;;;;;;12.15;3.28;;;8.10;99.90;;;;;;5072359;28;20117;-71
2022/04/28 01:39:08;;;;;;;8.68;2.67;;;7.80;99.90;;;;;;5072139;28;20067;-70
2022/04/28 01:41:34;;;;;;;11.70;3.22;;;7.80;99.90;;;;;;5070819;28;20141;-73
2022/04/28 01:43:59;;;;;;;9.13;3.25;;;7.80;99.90;;;;;;5072514;28;20087;-71
2022/04/28 01:46:25;;;;;;;12.88;2.80;;;7.80;99.90;;;;;;5072248;28;20044;-71
2022/04/28 01:48:51;;;;;;;12.02;2.92;;;7.80;99.90;;;;;;5072110;28;20483;-73
2022/04/28 01:56:45;;;;;;;13.20;3.30;;;7.80;99.90;;;;;;5071621;28;20139;-71
2022/04/28 01:59:10;;;;;;;9.57;3.05;;;7.80;99.90;;;;;;5071871;28;20550;-71
2022/04/28 02:01:36;;;;;;;13.82;3.60;;;7.90;99.90;;;;;;5068986;28;20097;-73
2022/04/28 02:04:01;;;;;;;10.30;2.90;;;7.90;99.90;;;;;;5070214;28;20052;-71
2022/04/28 02:06:27;;;;;;;11.00;3.22;;;7.80;99.90;;;;;;5072192;28;20079;-71
2022/04/28 02:08:59;;;;;;;10.73;3.45;;;7.80;99.90;;;;;;5072125;28;20528;-71
2022/04/28 02:11:25;;;;;;;9.88;3.03;;;8.00;99.90;;;;;;5071064;28;20177;-72
2022/04/28 02:13:51;;;;;;;8.73;2.70;;;7.90;99.90;;;;;;5069831;28;20097;-72
2022/04/28 02:16:17;;;;;;;8.30;3.10;;;7.90;99.90;;;;;;5070827;28;20052;-70
2022/04/28 02:18:43;;;;;;;12.82;3.10;;;7.90;99.90;;;;;;5071342;28;20037;-71
2022/04/28 02:21:09;;;;;;;9.00;2.83;;;7.80;99.90;;;;;;5069719;28;20486;-72
2022/04/28 02:23:34;;;;;;;12.13;3.20;;;7.80;99.90;;;;;;5070978;28;20036;-71
2022/04/28 02:26:00;;;;;;;13.73;3.33;;;7.80;99.90;;;;;;5071215;28;20044;-73
2022/04/28 02:28:26;;;;;;;13.98;3.30;;;7.90;99.90;;;;;;5071096;28;20052;-70
2022/04/28 02:30:51;;;;;;;9.98;3.22;;;7.90;99.90;;;;;;5070983;28;20055;-71
2022/04/28 02:33:18;;;;;;;13.45;3.40;;;7.90;99.90;;;;;;5070943;28;20054;-71
2022/04/28 02:35:44;;;;;;;9.75;3.13;;;7.80;99.90;;;;;;5071249;28;20043;-72
2022/04/28 02:38:10;;;;;;;7.63;2.63;;;7.80;99.90;;;;;;5071008;28;20408;-70
2022/04/28 02:40:35;;;;;;;10.13;3.00;;;7.80;99.90;;;;;;5070700;28;20063;-71
2022/04/28 02:43:01;;;;;;;9.57;3.08;;;7.90;99.90;;;;;;5070063;28;20431;-73
2022/04/28 02:45:27;;;;;;;11.07;3.30;;;7.90;99.90;;;;;;5070768;28;20182;-70
2022/04/28 02:47:52;;;;;;;8.55;2.95;;;7.90;99.90;;;;;;5070891;28;20427;-73
2022/04/28 02:50:21;;;;;;;12.48;2.80;;;7.80;99.90;;;;;;5070594;28;20068;-71
2022/04/28 02:52:48;;;;;;;14.65;3.50;;;7.80;99.90;;;;;;5070621;28;20117;-71
2022/04/28 02:55:14;;;;;;;13.90;3.20;;;7.80;99.90;;;;;;5070192;28;20048;-72
2022/04/28 02:57:39;;;;;;;15.80;3.58;;;7.80;99.90;;;;;;5070805;28;20136;-71
2022/04/28 03:00:06;;;;;;;11.07;3.78;;;7.80;99.90;;;;;;5070492;28;20051;-70
2022/04/28 03:02:31;;;;;;;12.43;3.42;;;7.70;99.90;;;;;;5070150;28;20423;-72
2022/04/28 03:04:57;;;;;;;9.85;3.05;;;7.70;99.90;;;;;;5070140;28;20044;-71
2022/04/28 03:12:51;;;;;;;13.60;3.47;;;7.70;99.90;;;;;;5069891;28;20088;-72
2022/04/28 03:15:17;;;;;;;8.50;3.60;;;7.70;99.90;;;;;;5070106;28;20087;-72
2022/04/28 03:17:43;;;;;;;14.52;4.18;;;7.70;99.90;;;;;;5070498;28;20080;-72
2022/04/28 03:20:10;;;;;;;10.15;3.75;;;7.70;99.90;;;;;;5068829;28;20048;-71
2022/04/28 03:22:36;;;;;;;9.05;3.63;;;7.70;99.90;;;;;;5070540;28;20404;-74
2022/04/28 03:25:05;;;;;;;10.75;3.70;;;7.70;99.90;;;;;;5069727;28;20498;-71
2022/04/28 03:27:33;;;;;;;17.25;3.70;;;7.70;99.90;;;;;;5053036;28;20454;-73
2022/04/28 03:29:59;;;;;;;13.98;3.90;;;7.70;99.90;;;;;;5052946;28;20040;-73
2022/04/28 03:32:25;;;;;;;11.90;3.45;;;7.70;99.90;;;;;;5070379;28;20059;-71
2022/04/28 03:34:51;;;;;;;10.93;3.40;;;7.70;99.90;;;;;;5070291;28;20044;-72
2022/04/28 03:37:16;;;;;;;11.27;4.53;;;7.70;99.90;;;;;;5069799;28;20045;-72
2022/04/28 03:39:42;;;;;;;14.40;3.92;;;7.70;99.90;;;;;;5069924;28;20064;-73
2022/04/28 03:42:07;;;;;;;10.88;3.72;;;7.70;99.90;;;;;;5070037;28;20109;-72
2022/04/28 03:44:34;;;;;;;11.85;4.45;;;7.70;99.90;;;;;;5070233;28;20076;-72
2022/04/28 03:47:01;;;;;;;13.23;4.20;;;7.70;99.90;;;;;;5069946;28;20051;-70
2022/04/28 03:49:27;;;;;;;11.73;4.28;;;7.70;99.90;;;;;;5070381;28;20140;-71
2022/04/28 03:51:52;;;;;;;12.55;4.38;;;7.80;99.90;;;;;;5070053;28;20139;-73
2022/04/28 03:54:18;;;;;;;11.10;3.75;;;7.70;99.90;;;;;;5070194;28;20464;-71
2022/04/28 03:56:44;;;;;;;8.73;3.60;;;7.70;99.90;;;;;;5070239;28;20037;-71
2022/04/28 03:59:10;;;;;;;11.07;3.72;;;7.70;99.90;;;;;;5069787;28;20395;-72
2022/04/28 04:01:36;;;;;;;13.20;4.03;;;7.70;99.90;;;;;;5070005;28;20089;-71
2022/04/28 04:04:02;;;;;;;18.00;4.68;;;7.70;99.90;;;;;;5073942;28;20087;-71
2022/04/28 04:06:28;;;;;;;13.20;3.55;;;7.70;99.90;;;;;;5072955;28;20044;-73
2022/04/28 04:08:54;;;;;;;11.73;4.22;;;7.70;99.90;;;;;;5073997;28;20506;-72
2022/04/28 04:11:19;;;;;;;7.88;3.60;;;7.70;99.90;;;;;;5073673;28;20076;-71
2022/04/28 04:13:46;;;;;;;13.95;4.10;;;7.70;99.90;;;;;;5061842;28;20262;-72
2022/04/28 04:16:12;;;;;;;12.32;3.90;;;7.70;99.90;;;;;;5073697;28;20044;-71
2022/04/28 04:18:38;;;;;;;12.23;3.75;;;7.70;99.90;;;;;;5073724;28;20086;-72
2022/04/28 04:21:04;;;;;;;11.80;4.25;;;7.70;99.90;;;;;;5073800;28;20036;-71
2022/04/28 04:23:31;;;;;;;12.23;3.47;;;7.70;99.90;;;;;;5074173;28;20596;-70
2022/04/28 04:25:57;;;;;;;11.45;4.38;;;7.70;99.90;;;;;;5073869;28;20048;-73
2022/04/28 04:28:23;;;;;;;13.02;3.67;;;7.70;99.90;;;;;;5073574;28;20098;-72
2022/04/28 04:33:35;;;;;;;9.07;3.88;;;7.80;99.90;;;;;;5073468;28;20499;-72
2022/04/28 04:36:01;;;;;;;14.07;4.20;;;7.70;99.90;;;;;;5072025;28;20102;-70
2022/04/28 04:38:26;;;;;;;9.02;3.92;;;7.70;99.90;;;;;;5073722;28;20436;-71
2022/04/28 04:40:52;;;;;;;9.10;4.03;;;7.70;99.90;;;;;;5071624;28;20496;-71
2022/04/28 04:43:17;;;;;;;11.95;4.32;;;7.70;99.90;;;;;;5073090;28;20109;-72
2022/04/28 04:45:43;;;;;;;12.65;3.88;;;8.30;99.90;;;;;;5073361;28;20148;-72
2022/04/28 04:48:10;;;;;;;12.60;4.43;;;7.70;99.90;;;;;;5072912;28;20130;-73
2022/04/28 04:50:37;;;;;;;10.85;4.00;;;7.80;99.90;;;;;;5072765;28;20045;-70
2022/04/28 04:53:04;;;;;;;10.43;4.47;;;8.10;99.90;;;;;;5072719;28;20046;-73
2022/04/28 04:55:30;;;;;;;8.23;3.95;;;7.80;99.90;;;;;;5071809;28;20068;-71
2022/04/28 04:57:56;;;;;;;20.00;4.32;;;7.80;99.90;;;;;;5073128;28;20776;-71
2022/04/28 05:00:22;;;;;;;18.20;5.22;;;7.90;99.90;;;;;;5071952;28;20055;-70
2022/04/28 05:02:47;;;;;;;11.23;4.30;;;7.80;99.90;;;;;;5071715;28;20424;-71
2022/04/28 05:05:13;;;;;;;10.85;4.55;;;7.90;99.90;;;;;;5072617;28;20467;-70
2022/04/28 05:07:38;;;;;;;14.30;4.45;;;7.90;99.90;;;;;;5073068;28;20044;-71
2022/04/28 05:10:05;;;;;;;10.73;4.50;;;8.20;99.90;;;;;;5073022;28;20660;-72
2022/04/28 05:12:31;;;;;;;7.35;3.92;;;7.90;99.90;;;;;;5072003;28;20487;-71
2022/04/28 05:14:56;;;;;;;11.82;4.47;;;8.00;99.90;;;;;;5071838;28;20037;-70
2022/04/28 05:17:22;;;;;;;16.90;4.35;;;8.00;99.90;;;;;;5072487;28;20040;-73
2022/04/28 05:19:48;;;;;;;16.63;4.88;;;8.10;99.90;;;;;;5072819;28;20080;-72
2022/04/28 05:22:14;;;;;;;8.07;4.35;;;8.10;99.90;;;;;;5073069;28;20057;-72
2022/04/28 05:24:39;;;;;;;10.60;4.32;;;8.20;99.90;;;;;;5072867;28;20116;-72
2022/04/28 05:27:05;;;;;;;9.93;4.10;;;8.20;99.90;;;;;;5072774;28;20309;-70
2022/04/28 05:29:31;;;;;;;8.88;4.47;;;8.30;99.90;;;;;;5072382;28;20061;-71
2022/04/28 05:31:56;;;;;;;12.68;4.18;;;8.30;99.90;;;;;;5072612;28;20555;-71
2022/04/28 05:34:22;;;;;;;11.20;4.05;;;8.40;99.90;;;;;;5072567;28;20032;-72
2022/04/28 05:36:48;;;;;;;13.85;4.65;;;8.40;99.90;;;;;;5070843;28;20761;-72
2022/04/28 05:39:16;;;;;;;17.08;4.13;;;8.50;99.90;;;;;;5070624;28;20135;-72
2022/04/28 05:41:43;;;;;;;13.50;4.13;;;8.60;99.90;;;;;;5072064;28;20049;-71
2022/04/28 05:46:53;;;;;;;11.80;3.42;;;8.70;99.90;;;;;;5070536;28;20059;-72
2022/04/28 05:49:19;;;;;;;10.40;2.60;;;8.70;99.90;;;;;;5072005;28;20052;-74
2022/04/28 05:51:45;;;;;;;11.32;3.50;;;8.80;99.90;;;;;;5072126;28;20057;-71
2022/04/28 05:54:10;;;;;;;11.45;2.78;;;8.80;99.90;;;;;;5070467;28;20110;-71
2022/04/28 05:56:36;;;;;;;17.88;2.90;;;8.80;99.90;;;;;;5071510;28;20047;-74
2022/04/28 05:59:02;;;;;;;13.55;2.88;;;8.90;99.90;;;;;;5072090;28;20041;-73
2022/04/28 06:01:28;;;;;;;11.85;2.80;;;8.90;99.90;;;;;;5071926;28;20471;-72
2022/04/28 06:03:54;;;;;;;8.40;2.38;;;9.00;99.90;;;;;;5070566;28;20055;-74
2022/04/28 06:06:21;;;;;;;12.48;2.85;;;9.10;99.90;;;;;;5070600;28;20415;-74
2022/04/28 06:08:46;;;;;;;7.70;2.28;;;9.10;99.90;;;;;;5071933;28;20103;-70
2022/04/28 06:11:12;;;;;;;12.68;3.03;;;9.10;99.90;;;;;;5071703;28;20040;-70
2022/04/28 06:13:38;;;;;;;14.63;2.35;;;9.10;99.90;;;;;;5070942;28;20456;-72
2022/04/28 06:16:04;;;;;;;10.55;2.50;;;9.20;99.90;;;;;;5071394;28;20084;-74
2022/04/28 06:18:30;;;;;;;11.93;3.08;;;9.20;99.90;;;;;;5071659;28;20056;-70
2022/04/28 06:20:56;;;;;;;12.57;2.65;;;9.10;99.90;;;;;;5071598;28;20505;-72
2022/04/28 06:23:22;;;;;;;13.50;2.67;;;9.30;99.90;;;;;;5071715;28;20131;-71
2022/04/28 06:25:48;;;;;;;9.43;2.28;;;9.30;99.90;;;;;;5069136;28;20048;-74
2022/04/28 06:28:14;;;;;;;12.80;2.70;;;9.20;99.90;;;;;;5071063;28;20098;-72
2022/04/28 06:30:40;;;;;;;11.13;2.50;;;9.30;99.90;;;;;;5071445;28;20495;-73
2022/04/28 06:33:05;;;;;;;12.98;2.38;;;9.30;99.90;;;;;;5071082;28;20044;-74
2022/04/28 06:35:34;;;;;;;9.77;2.67;;;9.50;99.90;;;;;;5071268;28;20567;-71
2022/04/28 06:38:03;;;;;;;9.02;2.45;;;9.40;99.90;;;;;;5071205;28;20051;-71
2022/04/28 06:40:29;;;;;;;12.02;2.55;;;9.50;99.90;;;;;;5068777;28;20048;-71
2022/04/28 06:42:55;;;;;;;12.75;3.58;;;9.60;99.90;;;;;;5071052;28;20128;-72
2022/04/28 06:45:21;;;;;;;9.35;2.40;;;9.60;99.90;;;;;;5070869;28;20136;-71
2022/04/28 06:47:47;;;;;;;8.05;2.45;;;9.70;99.90;;;;;;5069537;28;20102;-72
2022/04/28 06:50:12;;;;;;;8.50;2.35;;;9.70;99.90;;;;;;5070339;28;20048;-74
2022/04/28 06:52:39;;;;;;;11.82;2.75;;;9.80;99.90;;;;;;5071011;28;20128;-70
2022/04/28 06:55:06;;;;;;;10.63;2.80;;;9.90;99.90;;;;;;5070864;28;20086;-71
2022/04/28 06:57:33;;;;;;;10.57;2.75;;;9.90;99.90;;;;;;5070527;28;20044;-70
2022/04/28 06:59:58;;;;;;;12.90;2.95;;;10.00;99.90;;;;;;5068821;28;20048;-72
2022/04/28 07:02:24;;;;;;;14.88;3.00;;;10.20;99.90;;;;;;5069250;28;20040;-72
2022/04/28 07:04:50;;;;;;;14.50;2.80;;;10.20;99.90;;;;;;5070452;28;20087;-71
2022/04/28 07:07:16;;;;;;;8.65;2.40;;;11.20;99.90;;;;;;5070736;28;20040;-70
2022/04/28 07:09:42;;;;;;;11.32;3.38;;;10.40;99.90;;;;;;5070617;28;20480;-71
2022/04/28 07:12:11;;;;;;;9.20;3.20;;;10.50;99.90;;;;;;5068710;28;20064;-72
2022/04/28 07:14:37;;;;;;;15.10;3.08;;;10.40;99.90;;;;;;5069138;28;20049;-72
2022/04/28 07:17:03;;;;;;;13.45;2.97;;;10.40;99.90;;;;;;5070520;28;20170;-72
2022/04/28 07:19:29;;;;;;;9.52;2.70;;;10.60;99.90;;;;;;5070567;28;20047;-71
2022/04/28 07:21:55;;;;;;;8.43;2.10;;;10.50;99.90;;;;;;5069891;28;20048;-71
2022/04/28 07:24:20;;;;;;;12.52;2.70;;;10.50;99.90;;;;;;5070451;28;20059;-70
2022/04/28 07:26:46;;;;;;;12.15;2.35;;;10.40;99.90;;;;;;5070148;28;20131;-71
2022/04/28 07:29:11;;;;;;;5.00;1.50;;;10.40;99.90;;;;;;5070251;28;20072;-70
2022/04/28 07:31:37;;;;;;;7.50;1.95;;;10.40;99.90;;;;;;5069776;28;20041;-71
2022/04/28 07:34:03;;;;;;;10.07;1.70;;;10.50;99.90;;;;;;5070107;28;20050;-71
2022/04/28 07:36:29;;;;;;;8.65;1.88;;;10.30;99.90;;;;;;5069652;28;20108;-71
2022/04/28 07:38:55;;;;;;;11.00;2.30;;;10.60;99.90;;;;;;5070131;28;20538;-75
2022/04/28 07:41:21;;;;;;;7.80;1.50;;;10.30;99.90;;;;;;5070151;28;20059;-74
2022/04/28 07:43:47;;;;;;;12.38;1.60;;;10.30;99.90;;;;;;5070762;28;20067;-74
2022/04/28 07:46:12;;;;;;;9.57;2.22;;;10.40;99.90;;;;;;5070796;28;20422;-71
2022/04/28 07:48:38;;;;;;;10.57;1.73;;;10.40;99.90;;;;;;5070877;28;20052;-72
2022/04/28 07:51:04;;;;;;;10.32;1.52;;;10.30;99.90;;;;;;5070277;28;20123;-72
2022/04/28 07:53:32;;;;;;;10.50;1.67;;;10.40;99.90;;;;;;5070702;28;20079;-72
2022/04/28 07:56:10;;;;;;;11.77;1.92;;;10.50;99.90;;;;;;5069893;28;20040;-74
2022/04/28 07:58:37;;;;;;;9.65;1.73;;;10.60;99.90;;;;;;5070592;28;20048;-72
2022/04/28 08:01:03;;;;;;;9.02;2.28;;;10.60;99.90;;;;;;5069094;28;20053;-73
2022/04/28 08:03:29;;;;;;;12.32;1.65;;;10.70;99.90;;;;;;5069774;28;20093;-71
2022/04/28 08:05:55;;;;;;;10.98;1.85;;;10.70;99.90;;;;;;5070687;28;20061;-71
2022/04/28 08:08:21;;;;;;;8.70;1.55;;;10.70;99.90;;;;;;5070502;28;20048;-72
2022/04/28 08:10:48;;;;;;;12.40;1.48;;;10.90;99.90;;;;;;5070968;28;20368;-71
2022/04/28 08:13:14;;;;;;;10.70;1.40;;;10.90;99.90;;;;;;5070458;28;20047;-73
2022/04/28 08:15:39;;;;;;;4.60;1.50;;;11.20;99.90;;;;;;5070584;28;20032;-74
2022/04/28 08:18:05;;;;;;;7.55;1.30;;;11.30;99.90;;;;;;5070703;28;20059;-74
2022/04/28 08:20:31;;;;;;;7.47;1.40;;;11.30;99.90;;;;;;5070852;28;20166;-72
2022/04/28 08:22:57;;;;;;;7.50;1.95;;;11.30;99.90;;;;;;5069354;28;20412;-75
2022/04/28 08:25:23;;;;;;;8.38;1.73;;;11.40;99.90;;;;;;5068777;28;20098;-74
2022/04/28 08:27:49;;;;;;;9.43;1.75;;;11.50;99.90;;;;;;5069670;28;20054;-74
2022/04/28 08:30:14;;;;;;;11.95;2.83;;;11.70;99.90;;;;;;5068531;28;20056;-72
2022/04/28 08:32:40;;;;;;;7.40;1.50;;;11.90;99.90;;;;;;5069594;28;20044;-77
2022/04/28 08:35:06;;;;;;;5.85;1.60;;;12.30;99.90;;;;;;5068262;28;20098;-71
2022/04/28 08:37:32;;;;;;;16.38;2.22;;;12.30;99.90;;;;;;5069643;28;20059;-73
2022/04/28 08:39:58;;;;;;;11.43;1.63;;;12.40;99.90;;;;;;5069746;28;20061;-73
2022/04/28 08:42:26;;;;;;;5.72;1.38;;;12.70;99.90;;;;;;5068410;28;20052;-72
2022/04/28 08:44:55;;;;;;;11.60;1.42;;;12.60;99.90;;;;;;5069805;28;20044;-74
2022/04/28 08:47:21;;;;;;;8.88;1.83;;;12.80;99.90;;;;;;5069453;28;20061;-73
2022/04/28 08:49:49;;;;;;;5.88;1.38;;;13.10;99.90;;;;;;5071200;28;20051;-75
2022/04/28 08:52:17;;;;;;;11.88;1.95;;;13.00;99.90;;;;;;5073380;28;20376;-73
2022/04/28 08:54:47;;;;;;;8.15;1.67;;;13.00;99.90;;;;;;5073246;28;20036;-74
2022/04/28 08:57:14;;;;;;;10.80;1.98;;;13.30;99.90;;;;;;5073360;28;20072;-72
2022/04/28 08:59:40;;;;;;;11.43;1.92;;;13.70;99.90;;;;;;5073183;28;20059;-73
2022/04/28 09:02:10;;;;;;;9.98;1.80;;;13.90;99.90;;;;;;5073369;28;20052;-74
2022/04/28 09:04:36;;;;;;;6.65;1.70;;;14.30;99.90;;;;;;5073017;28;20119;-72
2022/04/28 09:07:05;;;;;;;8.18;1.60;;;14.00;99.90;;;;;;5073271;28;20135;-73
2022/04/28 09:09:33;;;;;;;10.18;1.60;;;14.20;99.90;;;;;;5073721;28;20131;-71
2022/04/28 09:12:00;;;;;;;8.30;2.10;;;14.10;99.90;;;;;;5073408;28;20111;-74
2022/04/28 09:14:27;;;;;;;9.48;2.25;;;14.00;99.90;;;;;;5071786;28;20053;-72
2022/04/28 09:17:01;;;;;;;12.80;2.17;;;14.10;99.90;;;;;;5072473;28;20063;-73
2022/04/28 09:19:34;;;;;;;9.38;1.60;;;14.30;99.90;;;;;;5071960;28;20107;-73
2022/04/28 09:22:09;;;;;;;10.90;1.75;;;14.00;99.90;;;;;;5073082;28;20437;-73
2022/04/28 09:24:39;;;;;;;7.50;1.50;;;14.20;99.90;;;;;;5071982;28;20063;-74
2022/04/28 09:27:06;;;;;;;9.80;2.33;;;14.30;99.90;;;;;;5071881;28;20080;-74
2022/04/28 09:29:36;;;;;;;7.65;2.00;;;14.20;99.90;;;;;;5072914;28;20072;-73
2022/04/28 09:32:06;;;;;;;8.45;2.38;;;14.40;99.90;;;;;;5071763;28;20114;-76
2022/04/28 09:34:31;;;;;;;8.77;1.90;;;14.50;99.90;;;;;;5073234;28;20090;-73
2022/04/28 09:36:58;;;;;;;11.93;2.70;;;14.80;99.90;;;;;;5054466;28;20048;-72
2022/04/28 09:42:31;;;;;;;11.60;2.42;;;15.20;99.90;;;;;;5072575;28;20052;-74
2022/04/28 09:44:58;;;;;;;12.35;2.17;;;15.50;99.90;;;;;;5072803;28;20114;-75
2022/04/28 09:47:26;;;;;;;9.95;2.03;;;15.60;99.90;;;;;;5072429;28;20501;-75
2022/04/28 09:49:52;;;;;;;18.50;3.22;;;15.90;99.90;;;;;;5072673;28;20119;-74
2022/04/28 09:52:24;;;;;;;8.75;2.00;;;15.90;99.90;;;;;;5071029;28;20056;-76
2022/04/28 09:54:54;;;;;;;10.68;2.30;;;15.60;99.90;;;;;;5071274;28;20056;-75
2022/04/28 09:57:21;;;;;;;11.63;2.08;;;15.20;99.90;;;;;;5071937;28;20118;-75
2022/04/28 09:59:47;;;;;;;8.73;2.55;;;15.10;99.90;;;;;;5069468;28;20583;-72
2022/04/28 10:02:16;;;;;;;12.05;2.30;;;15.00;99.90;;;;;;5070916;28;20056;-75
2022/04/28 10:04:43;;;;;;;11.18;2.53;;;15.10;99.90;;;;;;5071853;28;20055;-70
2022/04/28 10:07:09;;;;;;;9.35;1.90;;;15.00;99.90;;;;;;5065569;28;20055;-73
2022/04/28 10:09:36;;;;;;;12.10;2.30;;;14.80;99.90;;;;;;5050699;28;20052;-73
2022/04/28 10:12:05;;;;;;;10.68;2.40;;;14.90;99.90;;;;;;5068114;28;20123;-72
2022/04/28 10:14:33;;;;;;;9.65;2.15;;;14.90;99.90;;;;;;5052200;28;20049;-75
2022/04/28 10:17:01;;;;;;;8.27;2.38;;;14.80;99.90;;;;;;5060852;28;20060;-75
2022/04/28 10:19:34;;;;;;;11.65;2.53;;;14.80;99.90;;;;;;5071881;28;20036;-74
2022/04/28 10:22:10;;;;;;;7.63;2.55;;;14.70;99.90;;;;;;5058520;28;20557;-76
2022/04/28 10:33:04;;;;;;;10.52;2.20;;;14.50;99.90;;;;;;5070071;28;20059;-75
2022/04/28 10:35:39;;;;;;;9.60;2.67;;;14.60;99.90;;;;;;5071676;28;20037;-72
2022/04/28 10:38:21;;;;;;;9.70;2.60;;;14.50;99.90;;;;;;5071368;28;20053;-74
2022/04/28 10:41:00;;;;;;;8.63;2.58;;;14.60;99.90;;;;;;5071294;28;20478;-72
2022/04/28 10:43:31;;;;;;;10.05;2.20;;;14.50;99.90;;;;;;5070017;28;20102;-74
2022/04/28 10:46:22;;;;;;;11.15;2.78;;;14.50;99.90;;;;;;5071408;28;20127;-75
2022/04/28 10:48:54;;;;;;;12.07;2.53;;;14.50;99.90;;;;;;5070940;28;20127;-75
2022/04/28 10:51:22;;;;;;;12.40;3.20;;;14.50;99.90;;;;;;5071314;28;20405;-73
2022/04/28 10:54:03;;;;;;;11.13;2.40;;;14.60;99.90;;;;;;5069769;28;20053;-72
2022/04/28 10:56:52;;;;;;;13.23;2.80;;;14.70;99.90;;;;;;5069779;28;20064;-76
2022/04/28 10:59:34;;;;;;;11.80;2.17;;;14.60;99.90;;;;;;5070784;28;20054;-73
2022/04/28 11:02:15;;;;;;;14.25;2.53;;;14.60;99.90;;;;;;5069876;28;20060;-75
2022/04/28 11:04:52;;;;;;;9.05;2.45;;;14.40;99.90;;;;;;5070899;28;20059;-74
2022/04/28 11:07:21;;;;;;;12.75;2.72;;;14.30;99.90;;;;;;5070964;28;20044;-75
2022/04/28 11:09:57;;;;;;;12.77;2.35;;;14.30;99.90;;;;;;5070621;28;20028;-74
2022/04/28 11:12:24;;;;;;;12.32;2.63;;;14.20;99.90;;;;;;5069062;28;20074;-75
2022/04/28 11:15:04;;;;;;;12.95;2.58;;;14.20;99.90;;;;;;5070610;28;20412;-74
2022/04/28 11:17:32;;;;;;;14.70;2.10;;;14.10;99.90;;;;;;5069055;28;20052;-76
2022/04/28 11:20:11;;;;;;;9.15;2.25;;;14.00;99.90;;;;;;5071026;28;20123;-77
2022/04/28 11:22:41;;;;;;;12.23;3.35;;;14.00;99.90;;;;;;5059814;28;20053;-75
2022/04/28 11:25:12;;;;;;;15.82;3.10;;;14.00;99.90;;;;;;5059580;28;20049;-76
2022/04/28 11:27:38;;;;;;;11.35;2.63;;;14.10;99.90;;;;;;5050570;28;20048;-71
2022/04/28 11:30:05;;;;;;;13.98;2.65;;;14.20;99.90;;;;;;5050815;28;20095;-75
2022/04/28 11:32:30;;;;;;;8.18;2.30;;;14.20;99.90;;;;;;5050492;28;20045;-76
2022/04/28 11:34:56;;;;;;;9.57;2.50;;;14.40;99.90;;;;;;5058794;28;20040;-75
2022/04/28 11:37:26;;;;;;;12.07;2.72;;;14.40;99.90;;;;;;5070482;28;20051;-75
2022/04/28 11:39:55;;;;;;;10.32;1.98;;;14.30;99.90;;;;;;5070245;28;20060;-76
2022/04/28 11:42:22;;;;;;;11.13;2.40;;;14.10;99.90;;;;;;5070263;28;20054;-73
2022/04/28 11:44:59;;;;;;;10.23;2.20;;;14.10;99.90;;;;;;5069003;28;20094;-77
2022/04/28 11:47:27;;;;;;;12.68;2.60;;;13.90;99.90;;;;;;5070504;28;20051;-75
2022/04/28 11:50:03;;;;;;;12.18;3.00;;;13.90;99.90;;;;;;5068615;28;20074;-79
2022/04/28 11:52:31;;;;;;;8.30;2.33;;;13.90;99.90;;;;;;5068724;28;20059;-72
2022/04/28 11:55:08;;;;;;;9.98;2.25;;;13.90;99.90;;;;;;5068517;28;20040;-73
2022/04/28 11:57:39;;;;;;;11.90;2.20;;;13.80;99.90;;;;;;5068887;28;20048;-78
2022/04/28 12:00:12;;;;;;;12.23;2.05;;;13.80;99.90;;;;;;5068740;28;20047;-77
2022/04/28 12:02:39;;;;;;;10.63;2.25;;;13.80;99.90;;;;;;5069643;28;20048;-76
2022/04/28 12:05:15;;;;;;;10.55;1.92;;;13.80;99.90;;;;;;5070096;28;20036;-75
2022/04/28 12:07:50;;;;;;;14.93;2.45;;;13.70;99.90;;;;;;5069729;28;20037;-72
2022/04/28 12:15:55;;;;;;;9.52;2.25;;;13.60;99.90;;;;;;5048359;28;20060;-73
2022/04/28 12:21:21;;;;;;;19.42;3.75;;;13.50;99.90;;;;;;5069025;28;20048;-72
2022/04/28 12:23:50;;;;;;;15.43;3.00;;;13.50;99.90;;;;;;5071363;28;20060;-73
2022/04/28 12:26:19;;;;;;;10.27;2.40;;;13.50;99.90;;;;;;5073493;28;20498;-73
2022/04/28 12:28:46;;;;;;;9.32;2.42;;;13.60;99.90;;;;;;5073899;28;20045;-74
2022/04/28 12:31:13;;;;;;;9.18;2.40;;;13.70;99.90;;;;;;5073648;28;20055;-73
2022/04/28 12:33:40;;;;;;;12.77;2.40;;;13.70;99.90;;;;;;5073984;28;20115;-74
2022/04/28 12:36:13;;;;;;;12.05;2.25;;;13.70;99.90;;;;;;5073902;28;20045;-72
2022/04/28 12:38:49;;;;;;;9.80;2.15;;;13.70;99.90;;;;;;5073794;28;20055;-73
2022/04/28 12:41:15;;;;;;;14.23;2.10;;;13.80;99.90;;;;;;5073414;28;20060;-75
2022/04/28 12:43:43;;;;;;;11.25;2.30;;;13.80;99.90;;;;;;5072309;28;20075;-73
2022/04/28 12:46:10;;;;;;;13.10;2.50;;;13.80;99.90;;;;;;5073508;28;20064;-73
2022/04/28 12:48:39;;;;;;;10.68;2.42;;;13.70;99.90;;;;;;5072583;28;20106;-76
2022/04/28 12:51:10;;;;;;;16.95;2.70;;;13.70;99.90;;;;;;5073574;28;20044;-75
2022/04/28 12:53:36;;;;;;;9.68;2.05;;;13.70;99.90;;;;;;5073385;28;20052;-75
2022/04/28 12:56:12;;;;;;;12.60;2.70;;;13.80;99.90;;;;;;5073398;28;20060;-74
2022/04/28 12:58:54;;;;;;;9.38;2.35;;;13.60;99.90;;;;;;5072184;28;20044;-72
2022/04/28 13:01:20;;;;;;;8.43;2.25;;;13.70;99.90;;;;;;5071765;28;20044;-74
2022/04/28 13:04:18;;;;;;;8.48;2.22;;;13.80;99.90;;;;;;5073169;28;20059;-75
2022/04/28 13:06:45;;;;;;;12.43;2.42;;;13.60;99.90;;;;;;5010881;28;20564;-75
2022/04/28 13:09:13;;;;;;;8.82;2.72;;;13.60;99.90;;;;;;5011086;28;20057;-74
2022/04/28 13:11:41;;;;;;;11.57;2.42;;;13.60;99.90;;;;;;4994433;28;20069;-77
2022/04/28 13:14:08;;;;;;;16.25;2.58;;;13.50;99.90;;;;;;5010962;28;20477;-71
2022/04/28 13:16:35;;;;;;;9.23;2.47;;;13.50;99.90;;;;;;5010877;28;20054;-75
2022/04/28 13:19:01;;;;;;;15.30;2.67;;;13.90;99.90;;;;;;4994491;28;20058;-76
2022/04/28 13:21:27;;;;;;;10.65;2.15;;;13.60;99.90;;;;;;4994501;28;20061;-73
2022/04/28 13:23:53;;;;;;;8.43;2.20;;;13.60;99.90;;;;;;5010790;28;20188;-73
2022/04/28 13:26:20;;;;;;;10.48;3.22;;;13.80;99.90;;;;;;5010729;28;20045;-74